createdAt,value
2018-05-24T00:02:20.361Z,8.73
2018-05-24T00:04:49.865Z,8.35
2018-05-24T00:07:17.510Z,12.63
2018-05-24T00:09:45.093Z,9.43
2018-05-24T00:12:12.700Z,9.25
2018-05-24T00:14:40.361Z,7.93
2018-05-24T00:17:07.948Z,8.98
2018-05-24T00:19:35.539Z,19.35
2018-05-24T00:22:03.157Z,10.10
2018-05-24T00:24:30.738Z,8.98
2018-05-24T00:26:58.373Z,14.63
2018-05-24T00:29:25.960Z,9.35
2018-05-24T00:31:53.585Z,10.32
2018-05-24T00:34:21.165Z,7.75
2018-05-24T00:36:48.798Z,25.58
2018-05-24T00:39:16.436Z,10.05
2018-05-24T00:41:44.017Z,7.25
2018-05-24T00:44:12.389Z,8.68
2018-05-24T00:46:40.756Z,9.32
2018-05-24T00:49:08.485Z,10.50
2018-05-24T00:51:36.062Z,9.23
2018-05-24T00:54:04.444Z,8.95
2018-05-24T00:56:32.058Z,9.95
2018-05-24T00:58:59.650Z,7.50
2018-05-24T01:01:27.265Z,8.68
2018-05-24T01:03:55.620Z,7.93
2018-05-24T01:06:23.269Z,8.43
2018-05-24T01:08:50.864Z,8.85
2018-05-24T01:11:21.769Z,9.48
2018-05-24T01:13:51.561Z,9.68
2018-05-24T01:16:21.478Z,8.20
2018-05-24T01:18:51.153Z,9.50
2018-05-24T01:21:20.943Z,10.02
2018-05-24T01:23:52.379Z,10.15
2018-05-24T01:26:22.057Z,8.90
2018-05-24T01:28:51.946Z,11.80
2018-05-24T01:31:21.391Z,13.98
2018-05-24T01:33:51.000Z,12.80
2018-05-24T01:36:21.826Z,8.07
2018-05-24T01:38:51.348Z,9.20
2018-05-24T01:41:21.003Z,11.48
2018-05-24T01:43:51.464Z,11.18
2018-05-24T01:46:22.109Z,8.50
2018-05-24T01:48:53.071Z,8.63
2018-05-24T01:51:22.741Z,11.23
2018-05-24T01:53:52.509Z,8.88
2018-05-24T01:56:23.099Z,9.60
2018-05-24T01:58:56.654Z,10.45
2018-05-24T02:01:26.903Z,9.13
2018-05-24T02:03:54.543Z,12.63
2018-05-24T02:06:22.909Z,11.40
2018-05-24T02:08:51.320Z,15.32
2018-05-24T02:11:18.898Z,16.85
2018-05-24T02:13:46.522Z,8.90
2018-05-24T02:16:14.885Z,9.65
2018-05-24T02:18:43.281Z,10.43
2018-05-24T02:21:10.921Z,11.02
2018-05-24T02:23:38.503Z,10.40
2018-05-24T02:26:06.159Z,12.95
2018-05-24T02:28:34.550Z,13.75
2018-05-24T02:31:02.930Z,19.17
2018-05-24T02:33:31.293Z,10.93
2018-05-24T02:35:59.891Z,9.55
2018-05-24T02:38:27.419Z,11.32
2018-05-24T02:40:55.834Z,10.35
2018-05-24T02:43:23.413Z,10.48
2018-05-24T02:45:51.117Z,13.70
2018-05-24T02:48:18.685Z,8.90
2018-05-24T02:50:46.273Z,9.07
2018-05-24T02:53:14.669Z,9.43
2018-05-24T02:55:42.278Z,13.43
2018-05-24T02:58:09.898Z,8.40
2018-05-24T03:00:37.524Z,9.80
2018-05-24T03:03:05.881Z,26.95
2018-05-24T03:05:33.526Z,12.00
2018-05-24T03:08:01.118Z,12.60
2018-05-24T03:10:28.772Z,10.82
2018-05-24T03:12:56.395Z,9.68
2018-05-24T03:15:24.035Z,12.18
2018-05-24T03:17:52.401Z,10.02
2018-05-24T03:20:20.754Z,11.82
2018-05-24T03:22:48.367Z,10.25
2018-05-24T03:25:15.986Z,13.18
2018-05-24T03:27:43.579Z,17.08
2018-05-24T03:30:11.228Z,21.33
2018-05-24T03:32:39.620Z,19.65
2018-05-24T03:35:07.224Z,13.18
2018-05-24T03:37:34.846Z,12.60
2018-05-24T03:40:02.522Z,14.65
2018-05-24T03:42:30.130Z,12.02
2018-05-24T03:44:57.746Z,14.15
2018-05-24T03:47:25.345Z,14.20
2018-05-24T03:49:52.965Z,18.75
2018-05-24T03:52:20.616Z,23.27
2018-05-24T03:54:48.214Z,15.45
2018-05-24T03:57:15.806Z,20.58
2018-05-24T04:00:03.980Z,19.25
2018-05-24T04:02:43.201Z,20.42
2018-05-24T04:05:11.601Z,22.55
2018-05-24T04:07:39.225Z,21.30
2018-05-24T04:10:06.848Z,24.50
2018-05-24T04:12:34.463Z,20.05
2018-05-24T04:15:02.854Z,22.95
2018-05-24T04:17:30.499Z,22.10
2018-05-24T04:19:58.869Z,21.62
2018-05-24T04:22:26.506Z,24.85
2018-05-24T04:24:54.116Z,26.30
2018-05-24T04:27:22.510Z,26.55
2018-05-24T04:29:50.095Z,27.10
2018-05-24T04:32:17.739Z,26.65
2018-05-24T04:34:45.405Z,23.65
2018-05-24T04:37:12.966Z,25.33
2018-05-24T04:39:40.552Z,28.77
2018-05-24T04:42:08.182Z,30.17
2018-05-24T04:44:35.823Z,24.92
2018-05-24T04:47:04.225Z,27.05
2018-05-24T04:49:31.853Z,28.23
2018-05-24T04:51:59.468Z,23.83
2018-05-24T04:54:27.073Z,25.45
2018-05-24T04:56:55.511Z,27.85
2018-05-24T04:59:23.131Z,29.15
2018-05-24T05:01:51.525Z,23.10
2018-05-24T05:04:19.166Z,27.40
2018-05-24T05:06:47.535Z,26.10
2018-05-24T05:09:15.914Z,21.87
2018-05-24T05:11:43.537Z,21.80
2018-05-24T05:14:11.125Z,22.80
2018-05-24T05:16:38.773Z,25.08
2018-05-24T05:19:06.399Z,20.02
2018-05-24T05:21:33.993Z,23.65
2018-05-24T05:24:01.579Z,23.45
2018-05-24T05:26:29.204Z,31.15
2018-05-24T05:28:56.777Z,37.25
2018-05-24T05:31:24.453Z,28.08
2018-05-24T05:33:52.090Z,23.85
2018-05-24T05:36:19.686Z,27.35
2018-05-24T05:38:47.308Z,23.85
2018-05-24T05:41:14.908Z,23.42
2018-05-24T05:43:42.533Z,26.80
2018-05-24T05:46:10.110Z,25.17
2018-05-24T05:48:37.744Z,27.00
2018-05-24T05:51:05.365Z,29.55
2018-05-24T05:53:32.943Z,27.70
2018-05-24T05:56:01.396Z,27.35
2018-05-24T05:58:28.988Z,28.70
2018-05-24T06:00:57.413Z,23.58
2018-05-24T06:03:25.042Z,27.70
2018-05-24T06:05:52.672Z,32.30
2018-05-24T06:08:21.077Z,32.42
2018-05-24T06:10:48.782Z,26.85
2018-05-24T06:13:16.426Z,33.20
2018-05-24T06:15:44.085Z,37.08
2018-05-24T06:18:11.822Z,28.73
2018-05-24T06:20:39.433Z,38.40
2018-05-24T06:23:07.095Z,35.50
2018-05-24T06:25:34.685Z,49.42
2018-05-24T06:28:02.317Z,39.55
2018-05-24T06:30:29.957Z,44.42
2018-05-24T06:32:57.605Z,39.63
2018-05-24T06:35:25.188Z,53.05
2018-05-24T06:37:52.810Z,43.47
2018-05-24T06:40:20.409Z,40.90
2018-05-24T06:42:48.021Z,34.00
2018-05-24T06:45:15.635Z,32.42
2018-05-24T06:47:43.230Z,24.20
2018-05-24T06:50:10.877Z,36.35
2018-05-24T06:52:38.578Z,23.38
2018-05-24T06:55:06.178Z,17.55
2018-05-24T06:57:33.817Z,18.12
2018-05-24T07:00:01.446Z,20.48
2018-05-24T07:02:30.269Z,18.05
2018-05-24T07:04:57.902Z,22.73
2018-05-24T07:07:26.389Z,15.63
2018-05-24T07:09:54.871Z,13.68
2018-05-24T07:12:23.297Z,17.55
2018-05-24T07:14:50.893Z,14.63
2018-05-24T07:17:18.527Z,22.35
2018-05-24T07:19:46.155Z,11.65
2018-05-24T07:22:13.761Z,18.62
2018-05-24T07:24:41.473Z,13.88
2018-05-24T07:27:09.081Z,13.43
2018-05-24T07:29:36.689Z,15.10
2018-05-24T07:32:04.405Z,17.20
2018-05-24T07:34:32.005Z,25.00
2018-05-24T07:36:59.820Z,16.90
2018-05-24T07:39:27.478Z,16.02
2018-05-24T07:41:55.102Z,14.87
2018-05-24T07:44:40.279Z,19.42
2018-05-24T07:47:08.709Z,13.45
2018-05-24T07:49:36.428Z,21.98
2018-05-24T07:52:04.127Z,19.40
2018-05-24T07:54:31.728Z,16.95
2018-05-24T07:56:59.385Z,13.90
2018-05-24T07:59:27.013Z,15.88
2018-05-24T08:01:55.417Z,23.80
2018-05-24T08:04:23.049Z,13.57
2018-05-24T08:06:50.629Z,19.40
2018-05-24T08:09:18.273Z,18.45
2018-05-24T08:11:45.989Z,22.33
2018-05-24T08:14:13.654Z,26.40
2018-05-24T08:16:58.917Z,44.38
2018-05-24T08:19:38.479Z,36.65
2018-05-24T08:22:13.684Z,26.75
2018-05-24T08:24:41.331Z,37.42
2018-05-24T08:27:09.452Z,26.62
2018-05-24T08:29:37.071Z,28.02
2018-05-24T08:32:04.679Z,26.85
2018-05-24T08:34:33.090Z,31.40
2018-05-24T08:37:00.669Z,31.87
2018-05-24T08:39:28.277Z,30.55
2018-05-24T08:41:55.930Z,30.05
2018-05-24T08:44:23.561Z,26.62
2018-05-24T08:46:51.205Z,30.02
2018-05-24T08:49:18.802Z,28.92
2018-05-24T08:51:46.434Z,23.70
2018-05-24T08:54:14.030Z,20.60
2018-05-24T08:56:41.700Z,27.43
2018-05-24T08:59:09.572Z,23.02
2018-05-24T09:01:38.196Z,23.00
2018-05-24T09:04:06.666Z,19.73
2018-05-24T09:06:34.405Z,24.07
2018-05-24T09:09:02.136Z,23.13
2018-05-24T09:11:29.864Z,24.90
2018-05-24T09:13:57.587Z,27.80
2018-05-24T09:16:25.203Z,18.47
2018-05-24T09:18:52.817Z,20.10
2018-05-24T09:21:20.519Z,16.97
2018-05-24T09:23:48.200Z,20.40
2018-05-24T09:26:15.785Z,23.80
2018-05-24T09:28:43.382Z,20.00
2018-05-24T09:31:11.785Z,28.73
2018-05-24T09:33:39.414Z,24.03
2018-05-24T09:36:07.802Z,20.67
2018-05-24T09:38:36.266Z,18.73
2018-05-24T09:41:03.882Z,26.93
2018-05-24T09:43:31.528Z,25.33
2018-05-24T09:45:59.174Z,17.63
2018-05-24T09:48:27.706Z,25.83
2018-05-24T09:50:55.288Z,23.47
2018-05-24T09:53:22.951Z,17.20
2018-05-24T09:55:50.598Z,15.30
2018-05-24T09:58:18.201Z,15.07
2018-05-24T10:00:46.629Z,16.07
2018-05-24T10:03:14.218Z,14.63
2018-05-24T10:05:41.846Z,8.93
2018-05-24T10:08:09.523Z,9.60
2018-05-24T10:10:37.149Z,11.97
2018-05-24T10:13:04.748Z,12.80
2018-05-24T10:15:32.432Z,9.47
2018-05-24T10:18:00.021Z,10.10
2018-05-24T10:20:28.432Z,9.60
2018-05-24T10:22:56.210Z,8.60
2018-05-24T10:25:24.100Z,7.63
2018-05-24T10:27:51.704Z,8.90
2018-05-24T10:30:19.329Z,9.17
2018-05-24T10:32:46.968Z,16.50
2018-05-24T10:35:14.610Z,12.83
2018-05-24T10:37:42.210Z,13.90
2018-05-24T10:40:09.875Z,10.43
2018-05-24T10:42:37.539Z,7.07
2018-05-24T10:45:05.241Z,11.00
2018-05-24T10:47:32.815Z,12.47
2018-05-24T10:50:00.432Z,13.30
2018-05-24T10:52:28.058Z,6.33
2018-05-24T10:54:55.717Z,8.30
2018-05-24T10:57:23.367Z,8.90
2018-05-24T10:59:51.735Z,7.23
2018-05-24T11:02:19.370Z,6.97
2018-05-24T11:04:47.052Z,8.10
2018-05-24T11:07:15.464Z,5.80
2018-05-24T11:09:43.364Z,5.40
2018-05-24T11:12:10.957Z,5.43
2018-05-24T11:14:39.749Z,5.47
2018-05-24T11:17:07.609Z,5.87
2018-05-24T11:19:35.563Z,7.90
2018-05-24T11:22:04.016Z,5.70
2018-05-24T11:24:31.668Z,6.63
2018-05-24T11:26:59.281Z,6.43
2018-05-24T11:29:27.674Z,6.70
2018-05-24T11:31:55.315Z,5.90
2018-05-24T11:34:23.448Z,4.73
2018-05-24T11:36:51.745Z,6.07
2018-05-24T11:39:19.390Z,5.40
2018-05-24T11:41:46.971Z,6.00
2018-05-24T11:44:14.631Z,7.53
2018-05-24T11:46:42.242Z,6.93
2018-05-24T11:49:09.907Z,5.20
2018-05-24T11:51:37.550Z,4.90
2018-05-24T11:54:05.898Z,5.43
2018-05-24T11:56:33.542Z,5.13
2018-05-24T11:59:01.139Z,4.23
2018-05-24T12:01:28.797Z,10.43
2018-05-24T12:03:56.409Z,8.57
2018-05-24T12:06:24.025Z,7.80
2018-05-24T12:08:52.473Z,5.67
2018-05-24T12:11:20.123Z,5.67
2018-05-24T12:13:47.763Z,5.87
2018-05-24T12:16:15.346Z,5.93
2018-05-24T12:18:42.976Z,8.03
2018-05-24T12:21:11.367Z,8.00
2018-05-24T12:23:39.018Z,10.93
2018-05-24T12:26:06.675Z,5.87
2018-05-24T12:28:35.014Z,4.57
2018-05-24T12:31:02.663Z,5.70
2018-05-24T12:33:30.330Z,4.23
2018-05-24T12:35:57.921Z,8.00
2018-05-24T12:38:25.561Z,4.53
2018-05-24T12:40:53.242Z,5.17
2018-05-24T12:43:20.847Z,5.40
2018-05-24T12:45:48.454Z,5.80
2018-05-24T12:48:16.093Z,6.00
2018-05-24T12:50:43.691Z,8.90
2018-05-24T12:53:11.318Z,4.50
2018-05-24T12:55:40.342Z,4.27
2018-05-24T12:58:07.978Z,15.30
2018-05-24T13:00:35.590Z,6.10
2018-05-24T13:03:03.945Z,6.20
2018-05-24T13:05:31.580Z,5.60
2018-05-24T13:07:59.747Z,6.53
2018-05-24T13:10:28.133Z,6.47
2018-05-24T13:12:55.744Z,6.40
2018-05-24T13:15:24.093Z,6.13
2018-05-24T13:17:51.738Z,6.57
2018-05-24T13:20:19.407Z,6.83
2018-05-24T13:22:47.066Z,6.57
2018-05-24T13:25:14.713Z,6.40
2018-05-24T13:27:42.373Z,10.60
2018-05-24T13:30:10.095Z,8.83
2018-05-24T13:32:38.458Z,9.20
2018-05-24T13:35:06.172Z,8.00
2018-05-24T13:37:34.006Z,8.37
2018-05-24T13:40:02.470Z,13.20
2018-05-24T13:42:30.108Z,8.97
2018-05-24T13:44:57.739Z,9.80
2018-05-24T13:47:25.424Z,7.07
2018-05-24T13:49:53.117Z,8.17
2018-05-24T13:52:20.725Z,8.70
2018-05-24T13:54:48.355Z,9.60
2018-05-24T13:57:16.755Z,9.33
2018-05-24T13:59:45.146Z,11.27
2018-05-24T14:02:12.744Z,7.70
2018-05-24T14:04:40.401Z,8.67
2018-05-24T14:07:08.018Z,8.03
2018-05-24T14:09:35.594Z,7.93
2018-05-24T14:12:03.253Z,11.70
2018-05-24T14:14:30.909Z,9.77
2018-05-24T14:16:58.548Z,8.43
2018-05-24T14:19:26.938Z,8.40
2018-05-24T14:21:55.345Z,8.90
2018-05-24T14:24:22.980Z,9.80
2018-05-24T14:26:51.365Z,13.20
2018-05-24T14:29:19.716Z,10.60
2018-05-24T14:31:47.368Z,8.67
2018-05-24T14:34:14.974Z,10.50
2018-05-24T14:36:43.322Z,7.90
2018-05-24T14:39:10.961Z,15.17
2018-05-24T14:41:38.621Z,8.37
2018-05-24T14:44:06.466Z,9.83
2018-05-24T14:46:34.274Z,10.50
2018-05-24T14:49:02.736Z,9.97
2018-05-24T14:51:30.497Z,10.20
2018-05-24T14:53:58.665Z,12.63
2018-05-24T14:56:26.271Z,12.50
2018-05-24T14:58:53.858Z,12.03
2018-05-24T15:01:21.551Z,13.37
2018-05-24T15:03:49.233Z,9.97
2018-05-24T15:06:16.886Z,9.97
2018-05-24T15:08:44.539Z,11.77
2018-05-24T15:11:12.187Z,9.83
2018-05-24T15:13:50.554Z,12.33
2018-05-24T15:16:18.185Z,12.10
2018-05-24T15:18:45.784Z,18.23
2018-05-24T15:21:13.441Z,11.63
2018-05-24T15:23:41.105Z,17.63
2018-05-24T15:26:08.728Z,14.13
2018-05-24T15:28:36.329Z,12.80
2018-05-24T15:31:04.082Z,9.40
2018-05-24T15:33:31.727Z,16.07
2018-05-24T15:35:59.401Z,8.60
2018-05-24T15:38:27.003Z,8.53
2018-05-24T15:40:54.657Z,9.50
2018-05-24T15:43:23.092Z,8.20
2018-05-24T15:45:50.757Z,10.37
2018-05-24T15:48:18.390Z,9.50
2018-05-24T15:50:46.018Z,6.90
2018-05-24T15:53:14.403Z,6.93
2018-05-24T15:55:42.747Z,7.30
2018-05-24T15:58:10.433Z,6.83
2018-05-24T16:00:38.036Z,7.07
2018-05-24T16:03:05.707Z,9.37
2018-05-24T16:05:33.363Z,8.10
2018-05-24T16:08:01.092Z,5.87
2018-05-24T16:10:29.502Z,6.57
2018-05-24T16:12:57.174Z,6.87
2018-05-24T16:15:24.837Z,6.50
2018-05-24T16:17:52.450Z,9.70
2018-05-24T16:20:20.072Z,7.20
2018-05-24T16:22:47.710Z,6.17
2018-05-24T16:25:15.354Z,11.73
2018-05-24T16:27:43.809Z,7.07
2018-05-24T16:30:11.384Z,5.90
2018-05-24T16:32:39.746Z,5.53
2018-05-24T16:35:07.406Z,6.20
2018-05-24T16:37:34.998Z,17.47
2018-05-24T16:40:03.924Z,7.53
2018-05-24T16:42:31.527Z,6.50
2018-05-24T16:44:59.184Z,6.13
2018-05-24T16:47:26.797Z,7.13
2018-05-24T16:49:54.443Z,6.67
2018-05-24T16:52:22.875Z,9.10
2018-05-24T16:54:50.549Z,8.20
2018-05-24T16:57:18.166Z,6.67
2018-05-24T16:59:45.783Z,6.10
2018-05-24T17:02:13.420Z,6.00
2018-05-24T17:04:41.005Z,7.30
2018-05-24T17:07:08.609Z,11.10
2018-05-24T17:09:36.239Z,7.50
2018-05-24T17:12:03.854Z,8.13
2018-05-24T17:14:31.524Z,6.77
2018-05-24T17:16:59.178Z,9.10
2018-05-24T17:19:26.764Z,6.93
2018-05-24T17:21:54.411Z,11.47
2018-05-24T17:24:22.081Z,15.43
2018-05-24T17:26:49.764Z,5.93
2018-05-24T17:29:17.389Z,9.40
2018-05-24T17:31:44.980Z,6.37
2018-05-24T17:34:12.621Z,11.23
2018-05-24T17:36:40.258Z,6.83
2018-05-24T17:39:07.869Z,6.50
2018-05-24T17:41:35.502Z,8.60
2018-05-24T17:44:03.111Z,7.47
2018-05-24T17:46:31.551Z,7.77
2018-05-24T17:48:59.142Z,5.03
2018-05-24T17:51:27.581Z,6.17
2018-05-24T17:53:55.185Z,8.20
2018-05-24T17:56:23.590Z,4.53
2018-05-24T17:58:51.276Z,10.43
2018-05-24T18:01:20.447Z,10.27
2018-05-24T18:03:48.789Z,4.30
2018-05-24T18:06:16.425Z,4.60
2018-05-24T18:08:44.088Z,9.87
2018-05-24T18:11:11.680Z,6.70
2018-05-24T18:13:39.308Z,5.67
2018-05-24T18:18:41.465Z,5.93
2018-05-24T18:21:09.056Z,6.17
2018-05-24T18:23:36.710Z,5.13
2018-05-24T18:26:05.129Z,4.77
2018-05-24T18:28:32.729Z,4.63
2018-05-24T18:31:00.422Z,4.47
2018-05-24T18:33:28.058Z,5.60
2018-05-24T18:35:56.507Z,5.90
2018-05-24T18:38:24.077Z,6.23
2018-05-24T18:40:52.443Z,5.70
2018-05-24T18:43:20.054Z,4.50
2018-05-24T18:45:47.644Z,4.83
2018-05-24T18:48:15.265Z,4.90
2018-05-24T18:50:42.899Z,4.43
2018-05-24T18:53:10.517Z,7.40
2018-05-24T18:55:38.160Z,4.77
2018-05-24T18:58:05.780Z,5.10
2018-05-24T19:00:33.413Z,7.10
2018-05-24T19:03:01.050Z,7.00
2018-05-24T19:05:28.637Z,4.43
2018-05-24T19:07:56.287Z,9.53
2018-05-24T19:10:24.666Z,7.23
2018-05-24T19:12:52.323Z,5.50
2018-05-24T19:15:19.947Z,5.83
2018-05-24T19:17:48.301Z,5.60
2018-05-24T19:20:15.975Z,9.00
2018-05-24T19:22:43.545Z,5.97
2018-05-24T19:25:11.137Z,5.00
2018-05-24T19:27:38.796Z,4.50
2018-05-24T19:30:06.385Z,7.13
2018-05-24T19:32:34.019Z,4.80
2018-05-24T19:35:01.642Z,4.50
2018-05-24T19:37:29.232Z,5.63
2018-05-24T19:39:56.866Z,4.53
2018-05-24T19:42:24.478Z,5.93
2018-05-24T19:44:52.096Z,5.43
2018-05-24T19:47:19.675Z,4.60
2018-05-24T19:49:48.087Z,4.40
2018-05-24T19:52:15.695Z,5.37
2018-05-24T19:54:43.345Z,6.87
2018-05-24T19:57:10.958Z,9.83
2018-05-24T19:59:38.633Z,4.97
2018-05-24T20:02:09.033Z,14.07
2018-05-24T20:04:38.756Z,8.37
2018-05-24T20:07:06.357Z,6.13
2018-05-24T20:09:33.986Z,7.73
2018-05-24T20:12:01.636Z,6.20
2018-05-24T20:14:29.217Z,7.70
2018-05-24T20:16:56.846Z,4.27
2018-05-24T20:19:25.212Z,7.77
2018-05-24T20:21:52.797Z,7.80
2018-05-24T20:24:20.461Z,3.80
2018-05-24T20:26:48.056Z,3.23
2018-05-24T20:29:15.702Z,4.13
2018-05-24T20:31:43.301Z,6.20
2018-05-24T20:34:10.938Z,3.83
2018-05-24T20:36:38.553Z,4.77
2018-05-24T20:39:06.972Z,3.40
2018-05-24T20:41:34.566Z,8.53
2018-05-24T20:44:02.216Z,5.00
2018-05-24T20:46:29.801Z,3.57
2018-05-24T20:48:57.422Z,3.47
2018-05-24T20:51:25.039Z,3.50
2018-05-24T20:53:52.677Z,4.97
2018-05-24T20:56:20.322Z,3.40
2018-05-24T20:58:47.973Z,3.23
2018-05-24T21:01:15.617Z,13.83
2018-05-24T21:03:43.226Z,5.50
2018-05-24T21:06:10.832Z,3.40
2018-05-24T21:08:38.430Z,5.20
2018-05-24T21:11:06.084Z,4.57
2018-05-24T21:13:33.724Z,5.43
2018-05-24T21:16:01.327Z,5.10
2018-05-24T21:18:28.956Z,4.90
2018-05-24T21:20:56.537Z,4.13
2018-05-24T21:23:24.161Z,5.73
2018-05-24T21:25:51.797Z,8.03
2018-05-24T21:28:19.450Z,8.37
2018-05-24T21:30:47.069Z,7.13
2018-05-24T21:33:14.742Z,11.13
2018-05-24T21:35:42.321Z,8.20
2018-05-24T21:38:09.961Z,4.07
2018-05-24T21:40:37.551Z,4.97
2018-05-24T21:43:05.175Z,9.50
2018-05-24T21:45:32.791Z,3.27
2018-05-24T21:48:00.406Z,3.00
2018-05-24T21:50:28.035Z,7.50
2018-05-24T21:52:55.617Z,3.70
2018-05-24T21:55:23.281Z,3.57
2018-05-24T21:57:50.872Z,5.47
2018-05-24T22:00:18.451Z,5.20
2018-05-24T22:02:46.116Z,4.97
2018-05-24T22:05:13.716Z,10.05
2018-05-24T22:07:41.356Z,3.87
2018-05-24T22:10:09.694Z,8.03
2018-05-24T22:12:37.281Z,6.00
2018-05-24T22:15:04.906Z,3.40
2018-05-24T22:17:32.484Z,3.20
2018-05-24T22:20:00.115Z,7.97
2018-05-24T22:22:27.730Z,3.53
2018-05-24T22:24:56.095Z,3.97
2018-05-24T22:27:23.717Z,3.73
2018-05-24T22:29:51.308Z,3.63
2018-05-24T22:32:18.959Z,3.40
2018-05-24T22:34:46.594Z,7.87
2018-05-24T22:37:14.199Z,8.07
2018-05-24T22:39:41.825Z,4.70
2018-05-24T22:42:09.413Z,8.13
2018-05-24T22:44:37.013Z,12.95
2018-05-24T22:47:04.671Z,6.15
2018-05-24T22:49:33.074Z,6.85
2018-05-24T22:52:00.687Z,4.47
2018-05-24T22:54:28.340Z,7.95
2018-05-24T22:56:55.922Z,8.35
2018-05-24T22:59:23.560Z,7.55
2018-05-24T23:01:51.184Z,5.22
2018-05-24T23:04:18.788Z,7.03
2018-05-24T23:06:46.422Z,4.53
2018-05-24T23:09:14.010Z,4.28
2018-05-24T23:11:41.641Z,3.62
2018-05-24T23:14:09.239Z,4.35
2018-05-24T23:16:36.867Z,4.25
2018-05-24T23:19:04.463Z,3.95
2018-05-24T23:21:32.065Z,10.80
2018-05-24T23:23:59.691Z,3.40
2018-05-24T23:26:30.874Z,11.35
2018-05-24T23:28:58.466Z,4.65
2018-05-24T23:31:26.097Z,3.80
2018-05-24T23:33:54.433Z,4.80
2018-05-24T23:36:22.092Z,4.30
2018-05-24T23:38:49.684Z,5.00
2018-05-24T23:41:18.124Z,4.72
2018-05-24T23:43:45.777Z,4.80
2018-05-24T23:46:13.360Z,4.97
2018-05-24T23:48:40.977Z,11.30
2018-05-24T23:51:08.603Z,5.07
2018-05-24T23:53:37.011Z,4.68
2018-05-24T23:56:04.644Z,5.53
2018-05-24T23:58:32.242Z,5.72
